Vremea acum in Beiuș - Romania

Vrei sa afli care e starea vremii acum in Bihor - Romania? Dorim sa iti furnizam starea vremii pentru Bihor - Romania. Starea vremii Bihor - Romania pentru astazi.

Vremea acum in Beiuș

Temperatura: 11.1 °C

Este: Senin
Se simte ca: 10.5 °C
Innorat: 0 %
Precipitatii: 0 %
Presiune atmosferica: 1016 hPa
Umiditate: 58%
Vizibilitate: 10 km
Vantul bate din ESE cu 6.8 km/h

Evolutia vremii in Beiuș pe ore

Ora: 04:00
Senin
Temperatura: 9.2°C
Sansa de precipitatii: 0%
Ora Descriere Temp Se simte Precipitatii Umiditate Vant
00:00Senin10.1°9.3°0%72%E 7.2 KM/H
01:00Senin9.9°8.9°0%71%ESE 7.6 KM/H
02:00Senin9.5°8.6°0%71%ESE 7.2 KM/H
03:00Senin11.1°8.4°0%58%ESE 6.8 KM/H
04:00Senin9.2°8.2°0%71%ESE 7.2 KM/H
05:00Senin9.1°0%70%ESE 7.9 KM/H
06:00Senin7.9°0%70%ESE 7.9 KM/H
07:00Senin9.7°8.8°0%70%ESE 7.6 KM/H
08:00Senin13.3°13.5°0%64%ESE 5 KM/H
09:00Senin18.2°18.2°0%53%SSE 4 KM/H
10:00Senin20.4°20.4°0%47%SSW 3.2 KM/H
11:00Senin21.9°21.9°0%43%WSW 5.4 KM/H
12:00Senin23°24.3°0%39%WSW 6.8 KM/H
13:00Senin23.9°24.5°0%36%WSW 8.3 KM/H
14:00Senin24.4°24.7°0%35%W 10.8 KM/H
15:00Senin24.5°24.8°0%36%W 14.8 KM/H
16:00Senin24.2°24.7°0%37%W 16.2 KM/H
17:00Senin23.6°24.5°0%37%W 15.5 KM/H
18:00Senin22.9°24.4°0%41%W 10.1 KM/H
19:00Senin22°22°0%52%WNW 4 KM/H
20:00Senin16.2°16.2°0%58%NNW 0.7 KM/H
21:00Senin13.9°14°0%59%ESE 5.8 KM/H
22:00Senin13°12.5°0%59%ESE 8.6 KM/H
23:00Senin12.7°12°0%57%ESE 9.4 KM/H




tutorials